Time;durP1;ratioP1;P1;durP2;ratioP2;P2;SDS_P1;SDS_P2;PMS_P1;PMS_P2;Temp;Humidity;BMP_temperature;BMP_pressure;BME280_temperature;BME280_humidity;BME280_pressure;Samples;Min_cycle;Max_cycle;Signal;HPM_P1;HPM_P2
2023/01/08 00:01:24;;;;;;;99.25;52.25;;;3.00;99.90;;;;;;2621478;46;20124;31
2023/01/08 00:04:04;;;;;;;83.03;46.92;;;3.00;99.90;;;;;;2603035;54;20030;31
2023/01/08 00:06:39;;;;;;;82.03;47.77;;;3.00;99.90;;;;;;2603186;54;20808;31
2023/01/08 00:09:15;;;;;;;83.30;47.30;;;3.00;99.90;;;;;;2603210;54;20101;31
2023/01/08 00:11:51;;;;;;;75.68;43.70;;;2.90;99.90;;;;;;2603182;54;20929;31
2023/01/08 00:14:27;;;;;;;91.47;49.15;;;2.90;99.90;;;;;;2603146;54;20940;31
2023/01/08 00:17:04;;;;;;;73.00;43.55;;;2.90;99.90;;;;;;2602733;54;20037;31
2023/01/08 00:19:42;;;;;;;66.63;40.10;;;2.90;99.90;;;;;;2772429;31;20626;31
2023/01/08 00:22:18;;;;;;;77.35;47.95;;;2.90;99.90;;;;;;2602194;54;20874;31
2023/01/08 00:24:55;;;;;;;;;;;2.90;99.90;;;;;;2603212;54;20026;31
2023/01/08 00:27:31;;;;;;;71.57;43.25;;;2.90;99.90;;;;;;2603256;54;20752;31
2023/01/08 00:30:09;;;;;;;75.57;46.00;;;2.80;99.90;;;;;;2602820;54;20064;31
2023/01/08 00:32:44;;;;;;;80.95;44.85;;;2.80;99.90;;;;;;2603102;54;20354;31
2023/01/08 00:35:23;;;;;;;88.60;49.10;;;2.80;99.90;;;;;;2602859;54;20991;31
2023/01/08 00:37:59;;;;;;;89.30;50.55;;;2.80;99.90;;;;;;2602943;54;20795;31
2023/01/08 00:40:35;;;;;;;71.35;47.22;;;2.80;99.90;;;;;;2603412;54;20027;31
2023/01/08 00:43:10;;;;;;;;;;;2.70;99.90;;;;;;2603219;54;20031;31
2023/01/08 00:45:45;;;;;;;79.90;44.90;;;2.70;99.90;;;;;;2603044;54;20774;31
2023/01/08 00:48:22;;;;;;;81.13;47.35;;;2.70;99.90;;;;;;2603182;54;20162;31
2023/01/08 00:50:57;;;;;;;85.88;51.40;;;2.70;99.90;;;;;;2602379;54;22492;31
2023/01/08 00:53:34;;;;;;;83.10;48.60;;;2.70;99.90;;;;;;2603087;54;20022;31
2023/01/08 00:56:09;;;;;;;86.35;56.03;;;2.70;99.90;;;;;;2602868;54;20226;31
2023/01/08 00:58:46;;;;;;;76.68;46.15;;;2.70;99.90;;;;;;2701286;39;20480;31
2023/01/08 01:01:22;;;;;;;81.45;47.38;;;2.60;99.90;;;;;;2602856;54;20887;31
2023/01/08 01:03:58;;;;;;;77.25;43.97;;;2.70;99.90;;;;;;2603036;54;20861;31
2023/01/08 01:06:35;;;;;;;75.22;45.90;;;2.60;99.90;;;;;;2602957;54;20783;31
2023/01/08 01:09:11;;;;;;;77.07;47.17;;;2.60;99.90;;;;;;2603142;54;20027;31
2023/01/08 01:11:46;;;;;;;71.75;42.20;;;2.70;99.90;;;;;;2602947;54;20033;31
2023/01/08 01:14:21;;;;;;;64.10;37.47;;;2.60;99.90;;;;;;2701321;39;20497;31
2023/01/08 01:16:57;;;;;;;79.40;44.17;;;2.60;99.90;;;;;;2602934;54;20031;31
2023/01/08 01:19:32;;;;;;;75.43;43.03;;;2.60;99.90;;;;;;2701263;39;22277;31
2023/01/08 01:22:10;;;;;;;73.05;45.22;;;2.50;99.90;;;;;;2602959;54;20034;31
2023/01/08 01:24:45;;;;;;;69.45;42.60;;;2.60;99.90;;;;;;2603055;54;20849;31
2023/01/08 01:27:21;;;;;;;69.22;42.35;;;2.50;99.90;;;;;;2602882;54;20034;31
2023/01/08 01:29:55;;;;;;;;;;;2.50;99.90;;;;;;2603168;54;20029;31
2023/01/08 01:32:33;;;;;;;70.27;41.20;;;2.50;99.90;;;;;;2602887;54;19934;31
2023/01/08 01:35:07;;;;;;;66.47;39.08;;;2.50;99.90;;;;;;2602862;54;20034;31
2023/01/08 01:37:47;;;;;;;76.55;42.90;;;2.50;99.90;;;;;;2621473;47;20030;31
2023/01/08 01:40:21;;;;;;;74.25;42.65;;;2.50;99.90;;;;;;2609404;46;20105;31
2023/01/08 01:42:56;;;;;;;68.70;41.50;;;2.50;99.90;;;;;;2603676;54;20676;31
2023/01/08 01:45:32;;;;;;;74.50;42.50;;;2.50;99.90;;;;;;2603760;54;20583;31
2023/01/08 01:48:08;;;;;;;64.87;38.83;;;2.50;99.90;;;;;;2603789;54;20782;31
2023/01/08 01:50:44;;;;;;;85.57;46.28;;;2.50;99.90;;;;;;2603720;54;19941;31
2023/01/08 01:53:23;;;;;;;153.23;72.15;;;2.50;99.90;;;;;;2603658;54;20028;31
2023/01/08 01:55:58;;;;;;;136.65;80.95;;;2.50;99.90;;;;;;2603574;54;20846;31
2023/01/08 01:58:34;;;;;;;87.80;55.37;;;2.50;99.90;;;;;;2602882;54;20092;31
2023/01/08 02:01:10;;;;;;;84.50;48.00;;;2.50;99.90;;;;;;2603649;54;20197;31
2023/01/08 02:03:47;;;;;;;78.50;46.03;;;2.40;99.90;;;;;;2603622;54;20837;31
2023/01/08 02:08:58;;;;;;;100.43;57.40;;;2.40;99.90;;;;;;2603407;54;20945;31
2023/01/08 02:11:39;;;;;;;111.15;68.65;;;2.40;99.90;;;;;;2603630;54;21074;31
2023/01/08 02:14:18;;;;;;;86.30;51.55;;;2.30;99.90;;;;;;2602641;54;20034;31
2023/01/08 02:16:57;;;;;;;77.60;45.92;;;2.30;99.90;;;;;;2603602;54;20077;31
2023/01/08 02:19:39;;;;;;;68.55;42.30;;;2.30;99.90;;;;;;2602893;54;20855;31
2023/01/08 02:22:23;;;;;;;104.33;61.90;;;2.30;99.90;;;;;;2603513;54;20046;31
2023/01/08 02:25:04;;;;;;;83.03;49.20;;;2.30;99.90;;;;;;2603499;54;20879;31
2023/01/08 02:27:44;;;;;;;80.75;47.08;;;2.30;99.90;;;;;;2603544;54;21563;31
2023/01/08 02:30:22;;;;;;;90.05;47.20;;;2.20;99.90;;;;;;2602759;54;20035;31
2023/01/08 02:33:00;;;;;;;76.77;45.77;;;2.20;99.90;;;;;;2603422;54;20926;31
2023/01/08 02:35:42;;;;;;;81.32;47.30;;;2.20;99.90;;;;;;2701931;39;20587;31
2023/01/08 02:38:18;;;;;;;88.57;50.83;;;2.20;99.90;;;;;;2603544;54;20085;31
2023/01/08 02:40:56;;;;;;;91.38;55.47;;;2.20;99.90;;;;;;2702186;39;20549;31
2023/01/08 02:43:37;;;;;;;82.75;50.45;;;2.10;99.90;;;;;;2603378;54;20038;31
2023/01/08 02:46:15;;;;;;;88.05;47.85;;;2.10;99.90;;;;;;2603317;54;20034;31
2023/01/08 02:48:53;;;;;;;97.05;50.97;;;2.20;99.90;;;;;;2603463;54;20948;31
2023/01/08 02:51:30;;;;;;;83.78;49.53;;;2.20;99.90;;;;;;2602690;54;20929;31
2023/01/08 02:54:07;;;;;;;83.10;46.08;;;2.10;99.90;;;;;;2602613;54;20852;31
2023/01/08 02:56:43;;;;;;;79.85;45.65;;;2.00;99.90;;;;;;2603648;54;20022;31
2023/01/08 02:59:21;;;;;;;77.05;44.40;;;2.10;99.90;;;;;;2603434;54;20034;31
2023/01/08 03:01:58;;;;;;;86.93;46.63;;;2.00;99.90;;;;;;2603487;54;20165;31
2023/01/08 03:04:36;;;;;;;80.70;48.25;;;2.00;99.90;;;;;;2603589;54;20900;31
2023/01/08 03:07:12;;;;;;;77.72;46.20;;;2.00;99.90;;;;;;2611173;46;20027;31
2023/01/08 03:09:47;;;;;;;;;;;1.90;99.90;;;;;;2603620;54;20913;31
2023/01/08 03:12:22;;;;;;;76.70;44.22;;;2.00;99.90;;;;;;2773448;31;20532;31
2023/01/08 03:15:01;;;;;;;83.95;45.70;;;2.00;99.90;;;;;;2603377;54;20085;31
2023/01/08 03:17:38;;;;;;;83.70;46.75;;;2.00;99.90;;;;;;2621933;46;20839;31
2023/01/08 03:20:15;;;;;;;93.23;50.63;;;1.90;99.90;;;;;;2603184;54;20034;31
2023/01/08 03:22:57;;;;;;;72.82;42.78;;;1.90;99.90;;;;;;2603266;54;20242;31
2023/01/08 03:25:32;;;;;;;89.17;49.77;;;1.90;99.90;;;;;;2603337;54;20931;31
2023/01/08 03:28:10;;;;;;;83.97;47.25;;;1.90;99.90;;;;;;2603384;54;20253;31
2023/01/08 03:30:44;;;;;;;87.10;47.37;;;1.90;99.90;;;;;;2603616;54;20034;31
2023/01/08 03:33:23;;;;;;;75.65;45.30;;;1.90;99.90;;;;;;2603653;54;20042;31
2023/01/08 03:35:58;;;;;;;82.82;47.00;;;1.90;99.90;;;;;;2603468;54;20048;31
2023/01/08 03:38:34;;;;;;;91.47;49.90;;;1.80;99.90;;;;;;2602530;54;20045;31
2023/01/08 03:41:11;;;;;;;88.10;48.70;;;1.80;99.90;;;;;;2603370;54;20026;31
2023/01/08 03:43:49;;;;;;;97.30;51.97;;;1.80;99.90;;;;;;2603391;54;20886;31
2023/01/08 03:46:26;;;;;;;92.57;50.13;;;1.70;99.90;;;;;;2603456;54;20246;31
2023/01/08 03:49:08;;;;;;;100.23;52.60;;;1.70;99.90;;;;;;2702022;39;20564;31
2023/01/08 03:51:44;;;;;;;96.57;53.10;;;1.70;99.90;;;;;;2603189;54;21298;31
2023/01/08 03:54:21;;;;;;;90.40;50.08;;;1.70;99.90;;;;;;2603281;54;20027;31
2023/01/08 03:56:56;;;;;;;104.93;56.22;;;1.70;99.90;;;;;;2603342;54;20026;31
2023/01/08 03:59:32;;;;;;;104.90;54.95;;;1.60;99.90;;;;;;2602974;54;20037;31
2023/01/08 04:02:08;;;;;;;96.75;51.97;;;1.60;99.90;;;;;;2603429;54;20800;31
2023/01/08 04:04:46;;;;;;;99.70;57.03;;;1.60;99.90;;;;;;2603017;54;20026;31
2023/01/08 04:07:23;;;;;;;101.57;56.20;;;1.60;99.90;;;;;;2603117;54;20250;31
2023/01/08 04:09:58;;;;;;;108.70;60.55;;;1.60;99.90;;;;;;2603161;54;20030;31
2023/01/08 04:12:34;;;;;;;108.97;56.67;;;1.60;99.90;;;;;;2603117;54;20022;31
2023/01/08 04:15:11;;;;;;;;;;;1.60;99.90;;;;;;2621804;46;20085;31
2023/01/08 04:17:47;;;;;;;105.82;54.15;;;1.50;99.90;;;;;;2621599;46;20786;31
2023/01/08 04:20:26;;;;;;;108.20;55.42;;;1.50;99.90;;;;;;2603375;54;20030;31
2023/01/08 04:23:03;;;;;;;104.97;54.65;;;1.40;99.90;;;;;;2603114;54;20057;31
2023/01/08 04:25:42;;;;;;;92.77;53.57;;;1.40;99.90;;;;;;2603106;54;20054;31
2023/01/08 04:28:19;;;;;;;94.45;54.20;;;1.50;99.90;;;;;;2603332;54;20030;31
2023/01/08 04:30:57;;;;;;;96.30;53.63;;;1.50;99.90;;;;;;2603332;54;20022;31
2023/01/08 04:33:32;;;;;;;94.75;54.45;;;1.40;99.90;;;;;;2603444;54;20113;31
2023/01/08 04:36:13;;;;;;;96.87;55.70;;;1.50;99.90;;;;;;2621898;47;20844;31
2023/01/08 04:38:50;;;;;;;101.45;53.75;;;1.50;99.90;;;;;;2603172;54;20034;31
2023/01/08 04:41:29;;;;;;;92.23;51.30;;;1.40;99.90;;;;;;2603067;54;20046;31
2023/01/08 04:44:05;;;;;;;103.00;56.05;;;1.50;99.90;;;;;;2602978;54;19935;31
2023/01/08 04:46:43;;;;;;;103.25;55.85;;;1.50;99.90;;;;;;2603254;54;20030;31
2023/01/08 04:49:21;;;;;;;92.75;53.28;;;1.50;99.90;;;;;;2603005;54;20025;31
2023/01/08 04:51:59;;;;;;;84.13;47.90;;;1.50;99.90;;;;;;2603132;54;20030;31
2023/01/08 04:54:35;;;;;;;89.35;50.15;;;1.50;99.90;;;;;;2621652;47;20027;31
2023/01/08 04:57:11;;;;;;;89.03;49.97;;;1.50;99.90;;;;;;2603097;54;20084;31
2023/01/08 04:59:46;;;;;;;91.07;49.08;;;1.50;99.90;;;;;;2602792;54;20660;31
2023/01/08 05:02:22;;;;;;;;;;;1.50;99.90;;;;;;2603549;54;20889;31
2023/01/08 05:04:56;;;;;;;97.90;51.80;;;1.50;99.90;;;;;;2621860;47;19965;31
2023/01/08 05:07:36;;;;;;;90.15;50.60;;;1.50;99.90;;;;;;2603019;54;20081;31
2023/01/08 05:10:14;;;;;;;84.25;47.70;;;1.50;99.90;;;;;;2603143;54;20073;31
2023/01/08 05:12:49;;;;;;;94.80;53.70;;;1.40;99.90;;;;;;2603301;54;20023;31
2023/01/08 05:15:24;;;;;;;92.22;52.33;;;1.50;99.90;;;;;;2603137;54;20929;31
2023/01/08 05:18:03;;;;;;;91.40;51.17;;;1.50;99.90;;;;;;2603932;54;20085;31
2023/01/08 05:20:38;;;;;;;96.72;52.10;;;1.50;99.90;;;;;;2603593;54;20026;31
2023/01/08 05:23:19;;;;;;;94.05;52.65;;;1.50;99.90;;;;;;2603980;54;20827;31
2023/01/08 05:25:58;;;;;;;80.40;44.35;;;1.50;99.90;;;;;;2603916;54;20040;31
2023/01/08 05:28:34;;;;;;;86.75;49.58;;;1.50;99.90;;;;;;2603732;54;20033;31
2023/01/08 05:31:10;;;;;;;76.40;44.30;;;1.50;99.90;;;;;;2603701;54;20035;31
2023/01/08 05:33:46;;;;;;;84.40;47.58;;;1.60;99.90;;;;;;2603650;54;20078;31
2023/01/08 05:36:21;;;;;;;;;;;1.60;99.90;;;;;;2604171;54;20026;31
2023/01/08 05:39:01;;;;;;;77.55;42.80;;;1.60;99.90;;;;;;2603867;54;19946;31
2023/01/08 05:41:35;;;;;;;85.38;47.85;;;1.60;99.90;;;;;;2603766;54;20038;31
2023/01/08 05:44:11;;;;;;;86.90;49.72;;;1.60;99.90;;;;;;2603792;54;20022;31
2023/01/08 05:46:49;;;;;;;88.15;48.25;;;1.60;99.90;;;;;;2603729;54;20878;31
2023/01/08 05:49:24;;;;;;;94.23;49.23;;;1.60;99.90;;;;;;2603780;54;20030;31
2023/01/08 05:51:58;;;;;;;85.05;47.40;;;1.60;99.90;;;;;;2603689;54;21145;31
2023/01/08 05:54:36;;;;;;;88.45;50.30;;;1.60;99.90;;;;;;2603758;54;20088;31
2023/01/08 05:57:12;;;;;;;84.28;48.33;;;1.60;99.90;;;;;;2603764;54;20834;31
2023/01/08 05:59:49;;;;;;;;;;;1.60;99.90;;;;;;2603782;54;20842;31
2023/01/08 06:02:27;;;;;;;83.45;45.40;;;1.60;99.90;;;;;;2603703;54;19989;31
2023/01/08 06:07:50;;;;;;;91.50;49.38;;;1.60;99.90;;;;;;2621981;46;20022;31
2023/01/08 06:10:28;;;;;;;90.43;51.40;;;1.60;99.90;;;;;;2621809;46;20101;31
2023/01/08 06:13:04;;;;;;;91.05;49.83;;;1.50;99.90;;;;;;2603918;54;20283;31
2023/01/08 06:15:41;;;;;;;;;;;1.60;99.90;;;;;;2604004;54;20030;31
2023/01/08 06:18:21;;;;;;;95.60;49.53;;;1.60;99.90;;;;;;2603754;54;19969;31
2023/01/08 06:21:04;;;;;;;92.22;49.25;;;1.50;99.90;;;;;;2603503;54;20038;31
2023/01/08 06:23:39;;;;;;;86.00;47.92;;;1.50;99.90;;;;;;2603361;54;20034;31
2023/01/08 06:26:19;;;;;;;96.20;51.20;;;1.50;99.90;;;;;;2603653;54;20022;31
2023/01/08 06:28:53;;;;;;;88.50;50.83;;;1.50;99.90;;;;;;2702333;39;21008;31
2023/01/08 06:31:28;;;;;;;95.60;51.45;;;1.50;99.90;;;;;;2603496;54;20889;31
2023/01/08 06:34:04;;;;;;;109.85;63.75;;;1.50;99.90;;;;;;2603270;54;20935;31
2023/01/08 06:36:41;;;;;;;275.23;160.98;;;1.50;99.90;;;;;;2603616;54;20180;31
2023/01/08 06:39:18;;;;;;;233.15;141.32;;;1.50;99.90;;;;;;2603675;54;20905;31
2023/01/08 06:41:57;;;;;;;122.10;71.85;;;1.50;99.90;;;;;;2603534;54;20832;31
2023/01/08 06:44:34;;;;;;;93.07;50.80;;;1.50;99.90;;;;;;2622003;46;20028;31
2023/01/08 06:47:09;;;;;;;84.05;47.05;;;1.50;99.90;;;;;;2603423;54;20889;31
2023/01/08 06:49:45;;;;;;;82.05;47.42;;;1.50;99.90;;;;;;2702066;39;20477;31
2023/01/08 06:52:24;;;;;;;85.05;46.70;;;1.50;99.90;;;;;;2603411;54;20035;31
2023/01/08 06:54:59;;;;;;;78.15;46.10;;;1.50;99.90;;;;;;2603459;54;20026;31
2023/01/08 06:57:40;;;;;;;83.07;47.70;;;1.50;99.90;;;;;;2603657;54;20027;31
2023/01/08 07:00:18;;;;;;;85.00;46.90;;;1.50;99.90;;;;;;2603573;54;20823;31
2023/01/08 07:02:58;;;;;;;80.47;44.63;;;1.50;99.90;;;;;;2603466;54;20026;31
2023/01/08 07:05:33;;;;;;;79.70;45.40;;;1.50;99.90;;;;;;2603438;54;20065;31
2023/01/08 07:08:09;;;;;;;77.55;42.42;;;1.50;99.90;;;;;;2603685;54;20212;31
2023/01/08 07:10:46;;;;;;;72.23;42.00;;;1.50;99.90;;;;;;2603622;54;20816;31
2023/01/08 07:13:25;;;;;;;81.68;45.70;;;1.50;99.90;;;;;;2603347;54;20613;31
2023/01/08 07:16:01;;;;;;;78.63;43.47;;;1.50;99.90;;;;;;2603415;54;20026;31
2023/01/08 07:18:37;;;;;;;79.10;44.08;;;1.60;99.90;;;;;;2603598;54;20022;31
2023/01/08 07:21:13;;;;;;;74.55;42.85;;;1.50;99.90;;;;;;2603476;54;20942;31
2023/01/08 07:23:50;;;;;;;78.03;45.43;;;1.50;99.90;;;;;;2603525;54;20089;31
2023/01/08 07:26:26;;;;;;;81.22;44.95;;;1.60;99.90;;;;;;2603463;54;20031;31
2023/01/08 07:29:05;;;;;;;74.65;43.78;;;1.50;99.90;;;;;;2602425;54;20034;31
2023/01/08 07:31:41;;;;;;;105.97;58.75;;;1.60;99.90;;;;;;2603342;54;20832;31
2023/01/08 07:34:15;;;;;;;;;;;1.60;99.90;;;;;;2603719;54;20026;31
2023/01/08 07:36:51;;;;;;;80.00;45.05;;;1.60;99.90;;;;;;2603368;54;19934;31
2023/01/08 07:39:30;;;;;;;72.72;45.22;;;1.70;99.90;;;;;;2603246;54;20856;31
2023/01/08 07:42:05;;;;;;;74.18;42.13;;;1.70;99.90;;;;;;2603367;54;20882;31
2023/01/08 07:44:44;;;;;;;72.47;41.83;;;1.70;99.90;;;;;;2603558;54;20032;31
2023/01/08 07:47:20;;;;;;;70.47;41.25;;;1.70;99.90;;;;;;2701794;39;20505;31
2023/01/08 07:49:56;;;;;;;70.07;38.75;;;1.70;99.90;;;;;;2603218;54;20960;31
2023/01/08 07:52:33;;;;;;;70.63;40.65;;;1.80;99.90;;;;;;2603282;54;20905;31
2023/01/08 07:55:07;;;;;;;;;;;1.80;99.90;;;;;;2603543;54;20962;31
2023/01/08 07:57:42;;;;;;;65.95;41.00;;;1.90;99.90;;;;;;2603254;54;20717;31
2023/01/08 08:00:25;;;;;;;64.95;37.00;;;1.90;99.90;;;;;;2603401;54;20026;31
2023/01/08 08:03:07;;;;;;;61.33;37.10;;;1.90;99.90;;;;;;2603179;54;20847;31
2023/01/08 08:05:43;;;;;;;56.83;35.03;;;2.00;99.90;;;;;;2603282;54;20122;31
2023/01/08 08:08:18;;;;;;;55.00;34.30;;;2.00;99.90;;;;;;2603315;54;20104;31
2023/01/08 08:10:54;;;;;;;62.63;36.08;;;2.10;99.90;;;;;;2603290;54;20128;31
2023/01/08 08:13:29;;;;;;;63.15;35.78;;;2.10;99.90;;;;;;2603299;54;20805;31
2023/01/08 08:16:10;;;;;;;58.60;35.15;;;2.10;99.90;;;;;;2614161;46;20026;31
2023/01/08 08:18:47;;;;;;;52.85;32.75;;;2.20;99.90;;;;;;2603086;54;20890;31
2023/01/08 08:21:24;;;;;;;50.85;31.67;;;2.40;99.90;;;;;;2603016;54;20026;31
2023/01/08 08:24:01;;;;;;;52.72;31.15;;;2.50;99.90;;;;;;2602987;54;20023;31
2023/01/08 08:26:37;;;;;;;46.40;30.02;;;2.60;99.90;;;;;;2602298;54;19958;31
2023/01/08 08:29:13;;;;;;;;;;;2.80;99.90;;;;;;2603413;54;20026;31
2023/01/08 08:31:52;;;;;;;43.90;27.42;;;3.00;99.90;;;;;;2603034;54;20766;31
2023/01/08 08:34:29;;;;;;;43.65;26.95;;;3.30;99.90;;;;;;2603292;54;20097;31
2023/01/08 08:37:07;;;;;;;40.20;27.35;;;3.50;99.90;;;;;;2603109;54;20030;31
2023/01/08 08:39:43;;;;;;;40.00;25.70;;;3.60;99.90;;;;;;2603000;54;20806;31
2023/01/08 08:42:18;;;;;;;;;;;3.80;99.90;;;;;;2603203;54;20877;31
2023/01/08 08:44:55;;;;;;;40.63;26.10;;;4.10;99.90;;;;;;2603151;54;19935;31
2023/01/08 08:47:35;;;;;;;36.55;26.05;;;4.30;99.90;;;;;;2603798;54;20022;31
2023/01/08 08:50:15;;;;;;;38.30;24.30;;;4.60;99.90;;;;;;2603771;54;20961;31
2023/01/08 08:52:49;;;;;;;40.65;24.75;;;4.90;99.90;;;;;;2603781;54;21121;31
2023/01/08 08:55:25;;;;;;;34.13;25.08;;;5.10;99.90;;;;;;2603683;54;20026;31
2023/01/08 08:58:05;;;;;;;38.05;24.95;;;5.50;99.90;;;;;;2603970;54;20820;31
2023/01/08 09:00:43;;;;;;;33.78;22.77;;;5.80;99.90;;;;;;2603946;54;20792;31
2023/01/08 09:03:22;;;;;;;38.30;25.30;;;6.00;99.90;;;;;;2603737;54;20027;31
2023/01/08 09:05:57;;;;;;;43.40;27.90;;;6.10;99.90;;;;;;2603870;54;20227;31
2023/01/08 09:08:33;;;;;;;;;;;6.20;99.90;;;;;;2622572;46;20054;31
2023/01/08 09:11:09;;;;;;;39.40;25.65;;;6.30;99.90;;;;;;2603500;54;19941;31
2023/01/08 09:13:49;;;;;;;37.30;24.85;;;6.40;99.90;;;;;;2603758;54;20892;31
2023/01/08 09:16:27;;;;;;;49.38;31.48;;;6.50;99.90;;;;;;2603769;54;20030;31
2023/01/08 09:19:08;;;;;;;44.37;28.43;;;6.70;99.90;;;;;;2603643;54;20033;31
2023/01/08 09:21:43;;;;;;;39.83;27.83;;;6.90;99.90;;;;;;2702413;39;21642;31
2023/01/08 09:24:24;;;;;;;48.67;31.83;;;6.90;99.90;;;;;;2604032;54;20112;31
2023/01/08 09:27:00;;;;;;;75.28;46.70;;;7.00;99.90;;;;;;2603626;54;20026;31
2023/01/08 09:29:36;;;;;;;73.95;51.50;;;7.10;99.90;;;;;;2603552;54;20030;31
2023/01/08 09:32:34;;;;;;;53.63;39.58;;;7.20;99.90;;;;;;2603083;54;20824;31
2023/01/08 09:35:17;;;;;;;35.83;25.95;;;7.40;99.90;;;;;;2603802;54;20025;31
2023/01/08 09:37:57;;;;;;;31.30;22.90;;;7.70;99.90;;;;;;2603569;54;20905;31
2023/01/08 09:40:37;;;;;;;34.53;24.17;;;7.80;99.90;;;;;;2622008;46;20849;31
2023/01/08 09:43:18;;;;;;;38.75;24.45;;;8.00;99.90;;;;;;2622077;46;20887;31
2023/01/08 09:45:54;;;;;;;30.25;22.60;;;8.10;99.90;;;;;;2603634;54;20085;31
2023/01/08 09:48:33;;;;;;;31.43;22.40;;;8.40;99.90;;;;;;2603667;54;20032;31
2023/01/08 09:51:14;;;;;;;32.83;21.52;;;8.60;99.90;;;;;;2603511;54;20247;31
2023/01/08 09:53:52;;;;;;;33.47;23.80;;;8.80;99.90;;;;;;2603613;54;20032;31
2023/01/08 09:56:33;;;;;;;30.25;21.75;;;9.10;99.90;;;;;;2603511;54;20026;31
2023/01/08 09:59:09;;;;;;;29.45;20.92;;;9.20;99.90;;;;;;2603465;54;20895;31
2023/01/08 10:01:46;;;;;;;32.10;20.70;;;9.30;99.90;;;;;;2603836;54;20033;31
2023/01/08 10:04:24;;;;;;;29.05;20.73;;;9.30;99.90;;;;;;2603560;54;20910;31
2023/01/08 10:07:06;;;;;;;27.63;20.43;;;9.30;99.90;;;;;;2603630;54;20026;31
2023/01/08 10:09:43;;;;;;;32.97;22.30;;;9.20;99.90;;;;;;2603549;54;20081;31
2023/01/08 10:12:18;;;;;;;30.67;20.02;;;9.20;99.90;;;;;;2603623;54;20042;31
2023/01/08 10:14:59;;;;;;;30.95;19.45;;;9.20;99.90;;;;;;2603568;54;20150;31
2023/01/08 10:17:32;;;;;;;29.00;19.25;;;9.30;99.90;;;;;;2603574;54;20034;31
2023/01/08 10:20:14;;;;;;;36.50;24.05;;;9.30;99.90;;;;;;2603438;54;20816;31
2023/01/08 10:22:56;;;;;;;25.88;18.73;;;9.40;99.90;;;;;;2603165;54;20092;31
2023/01/08 10:25:32;;;;;;;28.05;17.60;;;9.40;99.90;;;;;;2603336;54;20894;31
2023/01/08 10:28:17;;;;;;;22.20;16.13;;;9.40;99.90;;;;;;2603290;54;20030;31
2023/01/08 10:30:55;;;;;;;23.10;15.25;;;9.40;99.90;;;;;;2603531;54;20053;31
2023/01/08 10:33:34;;;;;;;28.17;18.60;;;9.40;99.90;;;;;;2603445;54;20023;31
2023/01/08 10:36:11;;;;;;;24.13;16.55;;;9.40;99.90;;;;;;2603541;54;20033;31
2023/01/08 10:38:58;;;;;;;24.25;16.17;;;9.50;99.90;;;;;;2603375;54;20946;31
2023/01/08 10:41:33;;;;;;;21.33;14.15;;;9.50;99.90;;;;;;2603614;54;20030;31
2023/01/08 10:44:11;;;;;;;24.85;15.80;;;9.50;99.90;;;;;;2621736;46;20026;31
2023/01/08 10:46:47;;;;;;;36.25;24.45;;;9.40;99.90;;;;;;2603420;54;20991;31
2023/01/08 10:49:27;;;;;;;54.85;29.80;;;9.40;99.90;;;;;;2603347;54;20814;31
2023/01/08 10:52:02;;;;;;;35.50;21.83;;;9.40;99.90;;;;;;2603444;54;20684;31
2023/01/08 10:54:41;;;;;;;35.90;22.70;;;9.50;99.90;;;;;;2603480;54;20987;31
2023/01/08 10:57:27;;;;;;;22.63;14.57;;;9.50;99.90;;;;;;2603273;54;20148;31
2023/01/08 11:00:02;;;;;;;19.08;12.63;;;9.40;99.90;;;;;;2603428;54;20106;31
2023/01/08 11:02:38;;;;;;;15.90;12.10;;;9.40;99.90;;;;;;2603531;54;20026;31
2023/01/08 11:05:13;;;;;;;17.65;11.77;;;9.30;99.90;;;;;;2603065;54;20850;31
2023/01/08 11:07:52;;;;;;;17.20;11.80;;;9.30;99.90;;;;;;2603515;54;20785;31
2023/01/08 11:10:30;;;;;;;18.75;11.10;;;9.20;99.90;;;;;;2603186;54;20030;31
2023/01/08 11:13:06;;;;;;;15.95;10.90;;;9.20;99.90;;;;;;2603650;54;20033;31
2023/01/08 11:15:41;;;;;;;16.75;11.40;;;9.20;99.90;;;;;;2603523;54;20038;31
2023/01/08 11:18:20;;;;;;;15.57;10.57;;;9.20;99.90;;;;;;2603262;54;20033;31
2023/01/08 11:20:55;;;;;;;14.70;10.35;;;9.20;99.90;;;;;;2603198;54;20037;31
2023/01/08 11:23:30;;;;;;;14.90;11.18;;;9.30;99.90;;;;;;2603125;54;20089;31
2023/01/08 11:26:09;;;;;;;14.73;10.63;;;9.30;99.90;;;;;;2603270;54;20830;31
2023/01/08 11:28:49;;;;;;;14.67;10.63;;;9.30;99.90;;;;;;2603182;54;20034;31
2023/01/08 11:31:25;;;;;;;16.40;10.90;;;9.20;99.90;;;;;;2603323;54;20281;31
2023/01/08 11:34:04;;;;;;;13.10;9.40;;;9.30;99.90;;;;;;2602972;54;20915;31
2023/01/08 11:36:42;;;;;;;18.02;9.70;;;9.30;99.90;;;;;;2603428;54;20125;31
2023/01/08 11:39:19;;;;;;;13.95;10.27;;;9.30;99.90;;;;;;2603485;54;20033;31
2023/01/08 11:41:53;;;;;;;16.45;10.23;;;9.20;99.90;;;;;;2603229;54;20085;31
2023/01/08 11:44:39;;;;;;;13.25;9.00;;;9.20;99.90;;;;;;2602604;54;20805;31
2023/01/08 11:47:17;;;;;;;13.50;8.18;;;9.20;99.90;;;;;;2603133;54;20044;31
2023/01/08 11:50:07;;;;;;;12.75;8.80;;;9.20;99.90;;;;;;2603133;54;20032;31
2023/01/08 11:52:47;;;;;;;11.70;8.07;;;9.20;99.90;;;;;;2603171;54;20019;31
2023/01/08 11:55:34;;;;;;;11.80;8.45;;;9.20;99.90;;;;;;2603289;54;19942;31
2023/01/08 11:58:21;;;;;;;11.30;7.95;;;9.20;99.90;;;;;;2603145;54;20149;31
2023/01/08 12:01:25;;;;;;;10.80;7.80;;;9.20;99.90;;;;;;2603042;54;20027;31
2023/01/08 12:04:13;;;;;;;13.23;8.68;;;9.20;99.90;;;;;;2602877;54;20027;31
2023/01/08 12:06:53;;;;;;;13.10;8.05;;;9.20;99.90;;;;;;2603106;54;20870;31
2023/01/08 12:09:35;;;;;;;12.13;7.40;;;9.20;99.90;;;;;;2602468;54;20944;31
2023/01/08 12:12:16;;;;;;;10.40;7.13;;;9.20;99.90;;;;;;2603048;54;20057;31
2023/01/08 12:14:58;;;;;;;12.63;7.97;;;9.20;99.90;;;;;;2603250;54;20022;31
2023/01/08 12:17:46;;;;;;;12.00;8.05;;;9.20;99.90;;;;;;2621496;46;20026;31
2023/01/08 12:20:27;;;;;;;11.95;8.18;;;9.20;99.90;;;;;;2602886;54;20897;31
2023/01/08 12:23:05;;;;;;;11.95;8.65;;;9.20;99.90;;;;;;2621462;46;20027;31
2023/01/08 12:25:58;;;;;;;12.80;8.48;;;9.20;99.90;;;;;;2621405;46;20081;31
2023/01/08 12:29:20;;;;;;;12.70;8.30;;;9.20;99.90;;;;;;2602988;54;20833;31
2023/01/08 12:32:16;;;;;;;11.30;7.60;;;9.20;99.90;;;;;;2620263;46;20077;31
2023/01/08 12:34:59;;;;;;;11.25;8.02;;;9.20;99.90;;;;;;2603106;54;20909;31
2023/01/08 12:37:36;;;;;;;12.95;8.30;;;9.20;99.90;;;;;;2603126;54;21313;31
2023/01/08 12:40:10;;;;;;;12.07;8.43;;;9.20;99.90;;;;;;2602940;54;20766;31
2023/01/08 12:42:46;;;;;;;15.18;8.82;;;9.20;99.90;;;;;;2603189;54;20026;31
2023/01/08 12:45:37;;;;;;;12.47;8.23;;;9.20;99.90;;;;;;2602990;54;20045;31
2023/01/08 12:48:14;;;;;;;13.90;8.43;;;9.20;99.90;;;;;;2602927;54;20056;31
2023/01/08 12:50:58;;;;;;;14.65;9.05;;;9.20;99.90;;;;;;2602786;54;20026;31
2023/01/08 12:53:43;;;;;;;12.73;8.80;;;9.20;99.90;;;;;;2603046;54;20026;31
2023/01/08 12:56:20;;;;;;;12.63;9.32;;;9.20;99.90;;;;;;2602824;54;20875;31
2023/01/08 12:59:20;;;;;;;11.38;8.45;;;9.20;99.90;;;;;;2602930;54;20034;31
2023/01/08 13:02:01;;;;;;;14.52;8.65;;;9.20;99.90;;;;;;2603092;54;20899;31
2023/01/08 13:04:43;;;;;;;14.30;9.68;;;9.20;99.90;;;;;;2602912;54;20023;31
2023/01/08 13:07:26;;;;;;;12.82;8.73;;;9.20;99.90;;;;;;2621052;47;20833;31
2023/01/08 13:10:04;;;;;;;14.43;9.52;;;9.10;99.90;;;;;;2621182;47;20927;31
2023/01/08 13:12:43;;;;;;;16.20;10.25;;;9.10;99.90;;;;;;2602818;54;20030;31
2023/01/08 13:15:22;;;;;;;14.82;9.18;;;9.10;99.90;;;;;;2602816;54;20953;31
2023/01/08 13:18:02;;;;;;;16.50;10.40;;;9.10;99.90;;;;;;2603055;54;20915;31
2023/01/08 13:20:36;;;;;;;16.52;10.10;;;9.00;99.90;;;;;;2602739;54;20081;31
2023/01/08 13:23:23;;;;;;;17.60;9.85;;;9.00;99.90;;;;;;2603181;54;20050;31
2023/01/08 13:25:59;;;;;;;19.70;11.05;;;9.00;99.90;;;;;;2602730;54;20032;31
2023/01/08 13:28:43;;;;;;;15.38;10.55;;;8.90;99.90;;;;;;2602738;54;20806;31
2023/01/08 13:31:29;;;;;;;15.75;11.30;;;8.90;99.90;;;;;;2602894;54;20848;31
2023/01/08 13:34:03;;;;;;;18.10;11.40;;;8.90;99.90;;;;;;2603399;54;20037;31
2023/01/08 13:36:36;;;;;;;18.25;10.68;;;8.90;99.90;;;;;;2603637;54;20763;31
2023/01/08 13:39:25;;;;;;;16.33;10.90;;;8.80;99.90;;;;;;2603630;54;21012;31
2023/01/08 13:42:01;;;;;;;17.27;10.83;;;8.80;99.90;;;;;;2603783;54;20150;31
2023/01/08 13:44:39;;;;;;;17.80;10.68;;;8.70;99.90;;;;;;2603665;54;20971;31
2023/01/08 13:47:25;;;;;;;18.58;10.77;;;8.70;99.90;;;;;;2603773;54;20137;31
2023/01/08 13:50:05;;;;;;;17.60;10.87;;;8.70;99.90;;;;;;2603733;54;20085;31
2023/01/08 13:52:44;;;;;;;16.73;10.73;;;8.60;99.90;;;;;;2603632;54;20104;31
2023/01/08 13:55:24;;;;;;;18.45;11.68;;;8.60;99.90;;;;;;2603625;54;20936;31